sensor_id;sensor_type;location;lat;lon;timestamp;temperature;humidity
37702;DHT22;23548;51.196;6.838;2022-08-11T00:00:36;21.60;64.20
37702;DHT22;23548;51.196;6.838;2022-08-11T00:03:08;21.60;64.60
37702;DHT22;23548;51.196;6.838;2022-08-11T00:05:52;21.50;65.10
37702;DHT22;23548;51.196;6.838;2022-08-11T00:08:26;21.40;65.10
37702;DHT22;23548;51.196;6.838;2022-08-11T00:11:02;21.40;65.30
37702;DHT22;23548;51.196;6.838;2022-08-11T00:13:33;21.30;65.60
37702;DHT22;23548;51.196;6.838;2022-08-11T00:16:01;21.30;66.30
37702;DHT22;23548;51.196;6.838;2022-08-11T00:18:28;21.10;66.70
37702;DHT22;23548;51.196;6.838;2022-08-11T00:20:57;21.10;67.00
37702;DHT22;23548;51.196;6.838;2022-08-11T00:23:25;21.10;67.40
37702;DHT22;23548;51.196;6.838;2022-08-11T00:25:52;21.00;67.70
37702;DHT22;23548;51.196;6.838;2022-08-11T00:28:32;20.90;67.90
37702;DHT22;23548;51.196;6.838;2022-08-11T00:31:02;20.90;67.90
37702;DHT22;23548;51.196;6.838;2022-08-11T00:33:36;20.90;67.80
37702;DHT22;23548;51.196;6.838;2022-08-11T00:36:04;20.80;68.40
37702;DHT22;23548;51.196;6.838;2022-08-11T00:38:34;20.70;68.50
37702;DHT22;23548;51.196;6.838;2022-08-11T00:47:32;20.50;69.70
37702;DHT22;23548;51.196;6.838;2022-08-11T00:52:58;20.40;70.70
37702;DHT22;23548;51.196;6.838;2022-08-11T00:59:07;20.40;70.20
37702;DHT22;23548;51.196;6.838;2022-08-11T01:12:58;20.30;70.90
37702;DHT22;23548;51.196;6.838;2022-08-11T01:30:16;20.10;71.30
37702;DHT22;23548;51.196;6.838;2022-08-11T01:41:28;19.90;72.00
37702;DHT22;23548;51.196;6.838;2022-08-11T01:55:49;19.70;74.40
37702;DHT22;23548;51.196;6.838;2022-08-11T01:58:35;19.60;74.90
37702;DHT22;23548;51.196;6.838;2022-08-11T02:03:54;19.50;75.50
37702;DHT22;23548;51.196;6.838;2022-08-11T02:07:09;19.50;75.70
37702;DHT22;23548;51.196;6.838;2022-08-11T02:09:49;19.40;76.20
37702;DHT22;23548;51.196;6.838;2022-08-11T02:12:45;19.40;76.70
37702;DHT22;23548;51.196;6.838;2022-08-11T02:15:25;19.30;76.80
37702;DHT22;23548;51.196;6.838;2022-08-11T02:18:03;19.30;77.30
37702;DHT22;23548;51.196;6.838;2022-08-11T02:20:53;19.30;78.10
37702;DHT22;23548;51.196;6.838;2022-08-11T02:23:50;19.20;78.10
37702;DHT22;23548;51.196;6.838;2022-08-11T02:26:25;19.10;78.50
37702;DHT22;23548;51.196;6.838;2022-08-11T02:34:20;18.90;79.70
37702;DHT22;23548;51.196;6.838;2022-08-11T02:37:02;18.80;80.00
37702;DHT22;23548;51.196;6.838;2022-08-11T02:59:30;18.60;81.50
37702;DHT22;23548;51.196;6.838;2022-08-11T03:16:18;18.50;83.30
37702;DHT22;23548;51.196;6.838;2022-08-11T03:19:21;18.40;84.20
37702;DHT22;23548;51.196;6.838;2022-08-11T03:22:24;18.30;84.60
37702;DHT22;23548;51.196;6.838;2022-08-11T03:25:11;18.30;85.20
37702;DHT22;23548;51.196;6.838;2022-08-11T03:33:18;18.20;85.50
37702;DHT22;23548;51.196;6.838;2022-08-11T03:36:06;18.20;86.10
37702;DHT22;23548;51.196;6.838;2022-08-11T03:38:54;18.10;86.40
37702;DHT22;23548;51.196;6.838;2022-08-11T03:41:39;18.10;86.60
37702;DHT22;23548;51.196;6.838;2022-08-11T03:52:36;17.90;87.80
37702;DHT22;23548;51.196;6.838;2022-08-11T04:14:45;17.70;90.10
37702;DHT22;23548;51.196;6.838;2022-08-11T04:23:48;17.60;90.40
37702;DHT22;23548;51.196;6.838;2022-08-11T05:07:24;18.20;90.90
37702;DHT22;23548;51.196;6.838;2022-08-11T05:15:17;18.50;91.10
37702;DHT22;23548;51.196;6.838;2022-08-11T05:18:12;18.50;90.80
37702;DHT22;23548;51.196;6.838;2022-08-11T05:21:03;18.60;90.80
37702;DHT22;23548;51.196;6.838;2022-08-11T05:23:57;18.70;90.70
37702;DHT22;23548;51.196;6.838;2022-08-11T05:26:48;18.80;90.70
37702;DHT22;23548;51.196;6.838;2022-08-11T05:29:45;19.00;90.20
37702;DHT22;23548;51.196;6.838;2022-08-11T05:32:39;19.10;90.20
37702;DHT22;23548;51.196;6.838;2022-08-11T05:38:36;19.30;90.40
37702;DHT22;23548;51.196;6.838;2022-08-11T05:41:25;19.40;90.40
37702;DHT22;23548;51.196;6.838;2022-08-11T05:44:17;19.50;90.20
37702;DHT22;23548;51.196;6.838;2022-08-11T05:47:02;19.50;89.60
37702;DHT22;23548;51.196;6.838;2022-08-11T05:49:49;19.70;89.60
37702;DHT22;23548;51.196;6.838;2022-08-11T05:52:35;19.80;88.80
37702;DHT22;23548;51.196;6.838;2022-08-11T05:55:20;19.90;88.20
37702;DHT22;23548;51.196;6.838;2022-08-11T05:58:06;20.10;87.40
37702;DHT22;23548;51.196;6.838;2022-08-11T06:00:41;20.20;86.20
37702;DHT22;23548;51.196;6.838;2022-08-11T06:03:08;20.30;85.60
37702;DHT22;23548;51.196;6.838;2022-08-11T06:05:40;20.40;84.60
37702;DHT22;23548;51.196;6.838;2022-08-11T06:08:07;20.60;81.40
37702;DHT22;23548;51.196;6.838;2022-08-11T06:10:42;20.70;80.60
37702;DHT22;23548;51.196;6.838;2022-08-11T06:13:09;20.90;80.10
37702;DHT22;23548;51.196;6.838;2022-08-11T06:15:47;21.00;80.10
37702;DHT22;23548;51.196;6.838;2022-08-11T06:18:14;21.20;79.40
37702;DHT22;23548;51.196;6.838;2022-08-11T06:20:54;21.40;78.40
37702;DHT22;23548;51.196;6.838;2022-08-11T06:23:23;21.50;77.40
37702;DHT22;23548;51.196;6.838;2022-08-11T06:25:51;21.70;77.20
37702;DHT22;23548;51.196;6.838;2022-08-11T06:28:17;21.80;74.70
37702;DHT22;23548;51.196;6.838;2022-08-11T06:30:46;22.00;74.80
37702;DHT22;23548;51.196;6.838;2022-08-11T06:33:29;22.10;72.90
37702;DHT22;23548;51.196;6.838;2022-08-11T06:42:08;22.50;71.50
37702;DHT22;23548;51.196;6.838;2022-08-11T06:44:41;22.60;72.00
37702;DHT22;23548;51.196;6.838;2022-08-11T06:47:10;22.70;70.10
37702;DHT22;23548;51.196;6.838;2022-08-11T06:49:46;22.80;69.80
37702;DHT22;23548;51.196;6.838;2022-08-11T06:52:33;22.90;67.70
37702;DHT22;23548;51.196;6.838;2022-08-11T06:55:05;23.00;67.00
37702;DHT22;23548;51.196;6.838;2022-08-11T06:57:36;23.10;65.80
37702;DHT22;23548;51.196;6.838;2022-08-11T07:00:23;23.10;65.00
37702;DHT22;23548;51.196;6.838;2022-08-11T07:03:17;23.20;65.30
37702;DHT22;23548;51.196;6.838;2022-08-11T07:05:44;23.30;65.00
37702;DHT22;23548;51.196;6.838;2022-08-11T07:14:25;23.70;64.10
37702;DHT22;23548;51.196;6.838;2022-08-11T07:17:15;23.90;63.60
37702;DHT22;23548;51.196;6.838;2022-08-11T07:19:46;23.90;61.90
37702;DHT22;23548;51.196;6.838;2022-08-11T07:22:34;24.00;63.20
37702;DHT22;23548;51.196;6.838;2022-08-11T07:25:21;24.30;63.80
37702;DHT22;23548;51.196;6.838;2022-08-11T07:28:11;24.30;63.10
37702;DHT22;23548;51.196;6.838;2022-08-11T07:31:02;24.50;62.20
37702;DHT22;23548;51.196;6.838;2022-08-11T07:33:51;24.60;60.70
37702;DHT22;23548;51.196;6.838;2022-08-11T07:36:18;24.70;59.80
37702;DHT22;23548;51.196;6.838;2022-08-11T07:38:48;24.70;59.90
37702;DHT22;23548;51.196;6.838;2022-08-11T07:41:21;24.80;59.00
37702;DHT22;23548;51.196;6.838;2022-08-11T07:43:50;24.90;60.80
37702;DHT22;23548;51.196;6.838;2022-08-11T07:46:17;25.10;59.60
37702;DHT22;23548;51.196;6.838;2022-08-11T07:49:03;25.10;59.20
37702;DHT22;23548;51.196;6.838;2022-08-11T07:51:50;25.30;58.30
37702;DHT22;23548;51.196;6.838;2022-08-11T07:54:35;25.40;58.30
37702;DHT22;23548;51.196;6.838;2022-08-11T07:57:04;25.50;57.60
37702;DHT22;23548;51.196;6.838;2022-08-11T07:59:50;25.60;57.00
37702;DHT22;23548;51.196;6.838;2022-08-11T08:02:35;25.60;57.80
37702;DHT22;23548;51.196;6.838;2022-08-11T08:05:20;25.70;58.20
37702;DHT22;23548;51.196;6.838;2022-08-11T08:08:06;25.90;56.80
37702;DHT22;23548;51.196;6.838;2022-08-11T08:10:53;25.90;56.30
37702;DHT22;23548;51.196;6.838;2022-08-11T08:13:40;25.90;56.40
37702;DHT22;23548;51.196;6.838;2022-08-11T08:16:25;25.90;55.70
37702;DHT22;23548;51.196;6.838;2022-08-11T08:19:15;26.00;55.60
37702;DHT22;23548;51.196;6.838;2022-08-11T08:21:42;26.10;55.00
37702;DHT22;23548;51.196;6.838;2022-08-11T08:24:09;26.10;55.80
37702;DHT22;23548;51.196;6.838;2022-08-11T08:26:35;26.20;56.70
37702;DHT22;23548;51.196;6.838;2022-08-11T08:29:20;26.30;54.90
37702;DHT22;23548;51.196;6.838;2022-08-11T08:32:06;26.30;55.10
37702;DHT22;23548;51.196;6.838;2022-08-11T08:34:34;26.50;54.30
37702;DHT22;23548;51.196;6.838;2022-08-11T08:37:01;26.50;54.10
37702;DHT22;23548;51.196;6.838;2022-08-11T08:39:27;26.60;55.80
37702;DHT22;23548;51.196;6.838;2022-08-11T08:41:56;26.60;54.00
37702;DHT22;23548;51.196;6.838;2022-08-11T08:44:24;26.60;54.30
37702;DHT22;23548;51.196;6.838;2022-08-11T08:46:55;26.70;52.70
37702;DHT22;23548;51.196;6.838;2022-08-11T08:49:29;26.80;53.60
37702;DHT22;23548;51.196;6.838;2022-08-11T08:52:00;26.90;53.40
37702;DHT22;23548;51.196;6.838;2022-08-11T08:54:33;27.10;52.50
37702;DHT22;23548;51.196;6.838;2022-08-11T08:57:02;27.10;51.80
37702;DHT22;23548;51.196;6.838;2022-08-11T08:59:31;26.90;51.80
37702;DHT22;23548;51.196;6.838;2022-08-11T09:02:03;27.00;51.80
37702;DHT22;23548;51.196;6.838;2022-08-11T09:04:31;27.20;52.20
37702;DHT22;23548;51.196;6.838;2022-08-11T09:07:07;27.30;51.00
37702;DHT22;23548;51.196;6.838;2022-08-11T09:09:34;27.30;52.00
37702;DHT22;23548;51.196;6.838;2022-08-11T09:12:01;27.20;52.40
37702;DHT22;23548;51.196;6.838;2022-08-11T09:14:35;27.40;52.40
37702;DHT22;23548;51.196;6.838;2022-08-11T09:17:21;27.50;52.70
37702;DHT22;23548;51.196;6.838;2022-08-11T09:19:50;27.50;50.60
37702;DHT22;23548;51.196;6.838;2022-08-11T09:22:32;27.60;50.70
37702;DHT22;23548;51.196;6.838;2022-08-11T09:25:19;27.60;49.90
37702;DHT22;23548;51.196;6.838;2022-08-11T09:28:08;27.20;50.20
37702;DHT22;23548;51.196;6.838;2022-08-11T09:30:35;27.30;50.20
37702;DHT22;23548;51.196;6.838;2022-08-11T09:33:03;27.30;50.30
37702;DHT22;23548;51.196;6.838;2022-08-11T09:35:32;27.40;51.20
37702;DHT22;23548;51.196;6.838;2022-08-11T09:37:59;27.60;49.70
37702;DHT22;23548;51.196;6.838;2022-08-11T09:40:46;27.70;48.50
37702;DHT22;23548;51.196;6.838;2022-08-11T09:43:15;27.60;48.50
37702;DHT22;23548;51.196;6.838;2022-08-11T09:46:01;27.50;48.70
37702;DHT22;23548;51.196;6.838;2022-08-11T09:48:30;27.60;48.70
37702;DHT22;23548;51.196;6.838;2022-08-11T09:51:00;27.70;49.40
37702;DHT22;23548;51.196;6.838;2022-08-11T09:53:30;27.80;48.70
37702;DHT22;23548;51.196;6.838;2022-08-11T09:55:56;27.90;50.30
37702;DHT22;23548;51.196;6.838;2022-08-11T09:58:23;28.10;49.40
37702;DHT22;23548;51.196;6.838;2022-08-11T10:00:50;28.20;50.90
37702;DHT22;23548;51.196;6.838;2022-08-11T10:03:24;28.40;46.80
37702;DHT22;23548;51.196;6.838;2022-08-11T10:05:55;28.40;47.00
37702;DHT22;23548;51.196;6.838;2022-08-11T10:08:42;28.30;46.50
37702;DHT22;23548;51.196;6.838;2022-08-11T10:11:11;28.50;49.20
37702;DHT22;23548;51.196;6.838;2022-08-11T10:13:42;28.70;46.40
37702;DHT22;23548;51.196;6.838;2022-08-11T10:16:29;28.60;46.80
37702;DHT22;23548;51.196;6.838;2022-08-11T10:19:01;28.60;47.90
37702;DHT22;23548;51.196;6.838;2022-08-11T10:21:47;28.80;46.40
37702;DHT22;23548;51.196;6.838;2022-08-11T10:24:35;28.90;46.50
37702;DHT22;23548;51.196;6.838;2022-08-11T10:27:20;28.90;45.30
37702;DHT22;23548;51.196;6.838;2022-08-11T10:29:46;28.90;45.20
37702;DHT22;23548;51.196;6.838;2022-08-11T10:32:32;28.90;45.40
37702;DHT22;23548;51.196;6.838;2022-08-11T10:35:20;28.70;45.20
37702;DHT22;23548;51.196;6.838;2022-08-11T10:37:48;28.80;45.60
37702;DHT22;23548;51.196;6.838;2022-08-11T10:40:16;29.00;45.60
37702;DHT22;23548;51.196;6.838;2022-08-11T10:42:42;29.10;45.60
37702;DHT22;23548;51.196;6.838;2022-08-11T10:45:29;29.30;44.60
37702;DHT22;23548;51.196;6.838;2022-08-11T10:48:14;29.30;46.40
37702;DHT22;23548;51.196;6.838;2022-08-11T10:50:45;29.20;45.60
37702;DHT22;23548;51.196;6.838;2022-08-11T10:53:30;29.20;44.10
37702;DHT22;23548;51.196;6.838;2022-08-11T10:56:15;29.30;46.00
37702;DHT22;23548;51.196;6.838;2022-08-11T10:59:00;29.30;43.80
37702;DHT22;23548;51.196;6.838;2022-08-11T11:01:35;29.00;45.40
37702;DHT22;23548;51.196;6.838;2022-08-11T11:04:22;29.20;44.50
37702;DHT22;23548;51.196;6.838;2022-08-11T11:06:57;29.30;45.60
37702;DHT22;23548;51.196;6.838;2022-08-11T11:09:30;29.50;44.20
37702;DHT22;23548;51.196;6.838;2022-08-11T11:15:02;29.70;45.10
37702;DHT22;23548;51.196;6.838;2022-08-11T11:17:54;29.80;43.20
37702;DHT22;23548;51.196;6.838;2022-08-11T11:20:24;29.80;42.80
37702;DHT22;23548;51.196;6.838;2022-08-11T11:22:56;29.70;43.90
37702;DHT22;23548;51.196;6.838;2022-08-11T11:34:00;30.00;42.70
37702;DHT22;23548;51.196;6.838;2022-08-11T11:36:44;30.10;42.10
37702;DHT22;23548;51.196;6.838;2022-08-11T11:39:12;29.70;42.30
37702;DHT22;23548;51.196;6.838;2022-08-11T11:41:39;29.70;42.40
37702;DHT22;23548;51.196;6.838;2022-08-11T11:44:06;29.60;42.30
37702;DHT22;23548;51.196;6.838;2022-08-11T11:46:32;29.70;42.20
37702;DHT22;23548;51.196;6.838;2022-08-11T11:49:00;29.80;42.00
37702;DHT22;23548;51.196;6.838;2022-08-11T11:51:32;29.90;42.10
37702;DHT22;23548;51.196;6.838;2022-08-11T11:53:58;30.00;41.90
37702;DHT22;23548;51.196;6.838;2022-08-11T11:56:28;30.30;41.80
37702;DHT22;23548;51.196;6.838;2022-08-11T11:58:55;30.10;41.30
37702;DHT22;23548;51.196;6.838;2022-08-11T12:01:39;30.00;41.20
37702;DHT22;23548;51.196;6.838;2022-08-11T12:04:08;30.00;40.60
37702;DHT22;23548;51.196;6.838;2022-08-11T12:06:36;30.00;41.30
37702;DHT22;23548;51.196;6.838;2022-08-11T12:09:03;30.30;40.70
37702;DHT22;23548;51.196;6.838;2022-08-11T12:11:29;30.60;41.90
37702;DHT22;23548;51.196;6.838;2022-08-11T12:14:16;30.70;40.30
37702;DHT22;23548;51.196;6.838;2022-08-11T12:16:44;30.70;40.70
37702;DHT22;23548;51.196;6.838;2022-08-11T12:19:13;30.90;41.00
37702;DHT22;23548;51.196;6.838;2022-08-11T12:21:40;30.90;40.40
37702;DHT22;23548;51.196;6.838;2022-08-11T12:24:30;31.00;40.80
37702;DHT22;23548;51.196;6.838;2022-08-11T12:27:16;31.00;39.90
37702;DHT22;23548;51.196;6.838;2022-08-11T12:29:50;31.10;40.10
37702;DHT22;23548;51.196;6.838;2022-08-11T12:32:18;30.70;40.60
37702;DHT22;23548;51.196;6.838;2022-08-11T12:34:44;30.80;39.70
37702;DHT22;23548;51.196;6.838;2022-08-11T12:37:10;30.90;40.00
37702;DHT22;23548;51.196;6.838;2022-08-11T12:39:43;31.00;40.60
37702;DHT22;23548;51.196;6.838;2022-08-11T12:42:31;31.20;38.80
37702;DHT22;23548;51.196;6.838;2022-08-11T12:45:16;30.90;38.80
37702;DHT22;23548;51.196;6.838;2022-08-11T12:48:19;30.50;39.60
37702;DHT22;23548;51.196;6.838;2022-08-11T12:51:09;30.70;40.60
37702;DHT22;23548;51.196;6.838;2022-08-11T12:54:14;31.00;39.50
37702;DHT22;23548;51.196;6.838;2022-08-11T12:56:50;31.20;39.10
37702;DHT22;23548;51.196;6.838;2022-08-11T12:59:38;31.30;40.70
37702;DHT22;23548;51.196;6.838;2022-08-11T13:02:25;31.40;38.50
37702;DHT22;23548;51.196;6.838;2022-08-11T13:05:12;31.60;38.80
37702;DHT22;23548;51.196;6.838;2022-08-11T13:07:41;31.70;39.30
37702;DHT22;23548;51.196;6.838;2022-08-11T13:10:10;31.60;39.00
37702;DHT22;23548;51.196;6.838;2022-08-11T13:12:36;31.50;38.70
37702;DHT22;23548;51.196;6.838;2022-08-11T13:15:22;31.50;39.30
37702;DHT22;23548;51.196;6.838;2022-08-11T13:17:51;31.70;38.30
37702;DHT22;23548;51.196;6.838;2022-08-11T13:20:21;31.90;37.70
37702;DHT22;23548;51.196;6.838;2022-08-11T13:22:50;31.80;37.90
37702;DHT22;23548;51.196;6.838;2022-08-11T13:25:18;31.60;38.00
37702;DHT22;23548;51.196;6.838;2022-08-11T13:27:46;31.70;38.00
37702;DHT22;23548;51.196;6.838;2022-08-11T13:30:13;32.00;37.10
37702;DHT22;23548;51.196;6.838;2022-08-11T13:32:59;31.90;37.10
37702;DHT22;23548;51.196;6.838;2022-08-11T13:35:28;31.80;38.00
37702;DHT22;23548;51.196;6.838;2022-08-11T13:37:55;31.50;38.20
37702;DHT22;23548;51.196;6.838;2022-08-11T13:40:22;31.90;37.30
37702;DHT22;23548;51.196;6.838;2022-08-11T13:42:50;33.90;35.70
37702;DHT22;23548;51.196;6.838;2022-08-11T13:45:17;34.60;34.40
37702;DHT22;23548;51.196;6.838;2022-08-11T13:47:44;35.60;33.40
37702;DHT22;23548;51.196;6.838;2022-08-11T13:50:11;36.70;32.70
37702;DHT22;23548;51.196;6.838;2022-08-11T13:52:41;36.90;31.90
37702;DHT22;23548;51.196;6.838;2022-08-11T13:55:09;37.70;31.00
37702;DHT22;23548;51.196;6.838;2022-08-11T13:57:36;39.80;30.70
37702;DHT22;23548;51.196;6.838;2022-08-11T14:00:06;40.10;28.30
37702;DHT22;23548;51.196;6.838;2022-08-11T14:02:40;39.50;29.40
37702;DHT22;23548;51.196;6.838;2022-08-11T14:05:15;39.20;29.00
37702;DHT22;23548;51.196;6.838;2022-08-11T14:07:54;40.20;28.30
37702;DHT22;23548;51.196;6.838;2022-08-11T14:10:27;41.10;27.50
37702;DHT22;23548;51.196;6.838;2022-08-11T14:13:06;41.80;27.00
37702;DHT22;23548;51.196;6.838;2022-08-11T14:15:52;41.50;26.80
37702;DHT22;23548;51.196;6.838;2022-08-11T14:18:25;40.60;27.10
37702;DHT22;23548;51.196;6.838;2022-08-11T14:20:58;40.50;27.70
37702;DHT22;23548;51.196;6.838;2022-08-11T14:23:46;39.30;27.80
37702;DHT22;23548;51.196;6.838;2022-08-11T14:26:15;40.40;27.40
37702;DHT22;23548;51.196;6.838;2022-08-11T14:29:00;39.40;27.50
37702;DHT22;23548;51.196;6.838;2022-08-11T14:31:32;40.50;27.20
37702;DHT22;23548;51.196;6.838;2022-08-11T14:34:04;41.20;26.50
37702;DHT22;23548;51.196;6.838;2022-08-11T14:36:36;42.20;26.40
37702;DHT22;23548;51.196;6.838;2022-08-11T14:39:07;41.60;26.40
37702;DHT22;23548;51.196;6.838;2022-08-11T14:41:38;41.50;26.80
37702;DHT22;23548;51.196;6.838;2022-08-11T14:44:24;41.60;26.70
37702;DHT22;23548;51.196;6.838;2022-08-11T14:47:10;41.00;26.70
37702;DHT22;23548;51.196;6.838;2022-08-11T14:49:40;40.10;26.90
37702;DHT22;23548;51.196;6.838;2022-08-11T14:52:12;41.80;26.90
37702;DHT22;23548;51.196;6.838;2022-08-11T14:54:50;41.60;27.40
37702;DHT22;23548;51.196;6.838;2022-08-11T14:57:38;41.80;26.30
37702;DHT22;23548;51.196;6.838;2022-08-11T15:00:08;43.00;25.60
37702;DHT22;23548;51.196;6.838;2022-08-11T15:02:38;42.60;25.70
37702;DHT22;23548;51.196;6.838;2022-08-11T15:05:25;42.20;25.70
37702;DHT22;23548;51.196;6.838;2022-08-11T15:07:53;42.40;26.30
37702;DHT22;23548;51.196;6.838;2022-08-11T15:10:20;41.70;25.90
37702;DHT22;23548;51.196;6.838;2022-08-11T15:12:47;40.30;27.20
37702;DHT22;23548;51.196;6.838;2022-08-11T15:15:15;41.00;26.60
37702;DHT22;23548;51.196;6.838;2022-08-11T15:18:04;40.50;27.00
37702;DHT22;23548;51.196;6.838;2022-08-11T15:20:31;41.30;26.70
37702;DHT22;23548;51.196;6.838;2022-08-11T15:23:15;42.80;26.00
37702;DHT22;23548;51.196;6.838;2022-08-11T15:26:05;41.60;26.40
37702;DHT22;23548;51.196;6.838;2022-08-11T15:28:37;40.40;27.70
37702;DHT22;23548;51.196;6.838;2022-08-11T15:31:24;41.10;27.20
37702;DHT22;23548;51.196;6.838;2022-08-11T15:33:54;40.50;28.30
37702;DHT22;23548;51.196;6.838;2022-08-11T15:36:41;41.00;27.60
37702;DHT22;23548;51.196;6.838;2022-08-11T15:39:37;40.50;27.40
37702;DHT22;23548;51.196;6.838;2022-08-11T15:42:24;39.90;27.80
37702;DHT22;23548;51.196;6.838;2022-08-11T15:45:09;39.70;27.70
37702;DHT22;23548;51.196;6.838;2022-08-11T15:47:58;40.00;28.20
37702;DHT22;23548;51.196;6.838;2022-08-11T15:50:28;40.70;27.20
37702;DHT22;23548;51.196;6.838;2022-08-11T15:53:23;41.60;27.20
37702;DHT22;23548;51.196;6.838;2022-08-11T15:55:51;39.50;28.60
37702;DHT22;23548;51.196;6.838;2022-08-11T15:58:18;39.20;28.90
37702;DHT22;23548;51.196;6.838;2022-08-11T16:01:04;40.30;28.40
37702;DHT22;23548;51.196;6.838;2022-08-11T16:03:55;41.10;28.00
37702;DHT22;23548;51.196;6.838;2022-08-11T16:06:56;41.80;26.40
37702;DHT22;23548;51.196;6.838;2022-08-11T16:09:41;42.00;26.90
37702;DHT22;23548;51.196;6.838;2022-08-11T16:12:17;41.90;26.80
37702;DHT22;23548;51.196;6.838;2022-08-11T16:14:51;39.70;28.00
37702;DHT22;23548;51.196;6.838;2022-08-11T16:17:44;38.50;28.50
37702;DHT22;23548;51.196;6.838;2022-08-11T16:20:14;38.50;29.10
37702;DHT22;23548;51.196;6.838;2022-08-11T16:22:43;39.80;28.30
37702;DHT22;23548;51.196;6.838;2022-08-11T16:25:15;39.20;28.30
37702;DHT22;23548;51.196;6.838;2022-08-11T16:27:45;39.60;28.40
37702;DHT22;23548;51.196;6.838;2022-08-11T16:30:13;39.30;27.90
37702;DHT22;23548;51.196;6.838;2022-08-11T16:32:43;39.40;28.20
37702;DHT22;23548;51.196;6.838;2022-08-11T16:35:14;40.00;28.20
37702;DHT22;23548;51.196;6.838;2022-08-11T16:38:01;40.10;28.10
37702;DHT22;23548;51.196;6.838;2022-08-11T16:40:49;39.30;28.10
37702;DHT22;23548;51.196;6.838;2022-08-11T16:43:17;39.50;28.20
37702;DHT22;23548;51.196;6.838;2022-08-11T16:46:03;39.10;28.40
37702;DHT22;23548;51.196;6.838;2022-08-11T16:48:50;39.60;28.50
37702;DHT22;23548;51.196;6.838;2022-08-11T16:51:19;39.30;28.40
37702;DHT22;23548;51.196;6.838;2022-08-11T16:53:48;39.10;28.70
37702;DHT22;23548;51.196;6.838;2022-08-11T16:56:33;38.80;29.30
37702;DHT22;23548;51.196;6.838;2022-08-11T16:59:01;38.50;29.20
37702;DHT22;23548;51.196;6.838;2022-08-11T17:01:58;38.80;28.90
37702;DHT22;23548;51.196;6.838;2022-08-11T17:04:40;39.50;28.20
37702;DHT22;23548;51.196;6.838;2022-08-11T17:07:28;38.80;28.50
37702;DHT22;23548;51.196;6.838;2022-08-11T17:10:25;38.30;29.70
37702;DHT22;23548;51.196;6.838;2022-08-11T17:13:11;38.30;29.10
37702;DHT22;23548;51.196;6.838;2022-08-11T17:15:44;38.90;29.30
37702;DHT22;23548;51.196;6.838;2022-08-11T17:18:30;39.20;28.50
37702;DHT22;23548;51.196;6.838;2022-08-11T17:21:29;39.00;28.90
37702;DHT22;23548;51.196;6.838;2022-08-11T17:24:07;38.60;29.30
37702;DHT22;23548;51.196;6.838;2022-08-11T17:26:41;38.00;29.30
37702;DHT22;23548;51.196;6.838;2022-08-11T17:32:20;37.40;29.20
37702;DHT22;23548;51.196;6.838;2022-08-11T17:35:15;37.00;30.00
37702;DHT22;23548;51.196;6.838;2022-08-11T17:38:03;37.30;29.80
37702;DHT22;23548;51.196;6.838;2022-08-11T17:40:31;37.90;29.40
37702;DHT22;23548;51.196;6.838;2022-08-11T17:43:00;37.40;29.90
37702;DHT22;23548;51.196;6.838;2022-08-11T17:45:45;37.10;30.10
37702;DHT22;23548;51.196;6.838;2022-08-11T17:48:33;36.90;30.50
37702;DHT22;23548;51.196;6.838;2022-08-11T17:51:11;37.50;29.70
37702;DHT22;23548;51.196;6.838;2022-08-11T17:53:41;37.40;30.00
37702;DHT22;23548;51.196;6.838;2022-08-11T17:56:29;37.30;30.10
37702;DHT22;23548;51.196;6.838;2022-08-11T17:59:14;37.00;30.30
37702;DHT22;23548;51.196;6.838;2022-08-11T18:02:01;36.90;30.30
37702;DHT22;23548;51.196;6.838;2022-08-11T18:04:50;35.80;31.50
37702;DHT22;23548;51.196;6.838;2022-08-11T18:07:18;35.70;31.80
37702;DHT22;23548;51.196;6.838;2022-08-11T18:10:04;35.50;31.50
37702;DHT22;23548;51.196;6.838;2022-08-11T18:12:51;34.70;32.60
37702;DHT22;23548;51.196;6.838;2022-08-11T18:15:40;32.90;34.60
37702;DHT22;23548;51.196;6.838;2022-08-11T18:18:26;31.80;36.10
37702;DHT22;23548;51.196;6.838;2022-08-11T18:21:14;31.10;37.00
37702;DHT22;23548;51.196;6.838;2022-08-11T18:24:07;30.60;38.10
37702;DHT22;23548;51.196;6.838;2022-08-11T18:26:53;30.20;37.90
37702;DHT22;23548;51.196;6.838;2022-08-11T18:29:40;30.00;38.50
37702;DHT22;23548;51.196;6.838;2022-08-11T18:32:27;29.90;39.30
37702;DHT22;23548;51.196;6.838;2022-08-11T18:35:13;29.80;39.20
37702;DHT22;23548;51.196;6.838;2022-08-11T18:38:00;29.60;39.70
37702;DHT22;23548;51.196;6.838;2022-08-11T18:40:47;29.40;40.30
37702;DHT22;23548;51.196;6.838;2022-08-11T18:43:35;29.30;40.20
37702;DHT22;23548;51.196;6.838;2022-08-11T18:46:22;29.10;40.70
37702;DHT22;23548;51.196;6.838;2022-08-11T18:49:13;29.00;40.90
37702;DHT22;23548;51.196;6.838;2022-08-11T18:51:58;28.80;41.00
37702;DHT22;23548;51.196;6.838;2022-08-11T18:54:47;28.70;41.50
37702;DHT22;23548;51.196;6.838;2022-08-11T18:57:35;28.60;41.70
37702;DHT22;23548;51.196;6.838;2022-08-11T19:00:23;28.40;41.80
37702;DHT22;23548;51.196;6.838;2022-08-11T19:03:11;28.30;42.80
37702;DHT22;23548;51.196;6.838;2022-08-11T19:06:01;28.20;42.40
37702;DHT22;23548;51.196;6.838;2022-08-11T19:08:52;28.10;42.90
37702;DHT22;23548;51.196;6.838;2022-08-11T19:11:38;27.90;42.90
37702;DHT22;23548;51.196;6.838;2022-08-11T19:14:24;27.90;43.30
37702;DHT22;23548;51.196;6.838;2022-08-11T19:17:09;27.80;43.40
37702;DHT22;23548;51.196;6.838;2022-08-11T19:19:56;27.70;43.60
37702;DHT22;23548;51.196;6.838;2022-08-11T19:22:42;27.60;44.10
37702;DHT22;23548;51.196;6.838;2022-08-11T19:25:29;27.50;44.00
37702;DHT22;23548;51.196;6.838;2022-08-11T19:28:17;27.40;44.80
37702;DHT22;23548;51.196;6.838;2022-08-11T19:31:03;27.30;44.20
37702;DHT22;23548;51.196;6.838;2022-08-11T19:33:49;27.30;44.30
37702;DHT22;23548;51.196;6.838;2022-08-11T19:36:34;27.20;44.80
37702;DHT22;23548;51.196;6.838;2022-08-11T19:39:20;27.10;45.70
37702;DHT22;23548;51.196;6.838;2022-08-11T19:42:07;27.00;44.90
37702;DHT22;23548;51.196;6.838;2022-08-11T19:44:54;27.00;45.00
37702;DHT22;23548;51.196;6.838;2022-08-11T19:47:40;26.90;45.40
37702;DHT22;23548;51.196;6.838;2022-08-11T19:50:25;26.90;45.50
37702;DHT22;23548;51.196;6.838;2022-08-11T19:53:11;26.80;45.50
37702;DHT22;23548;51.196;6.838;2022-08-11T19:55:57;26.70;45.50
37702;DHT22;23548;51.196;6.838;2022-08-11T19:58:42;26.70;45.70
37702;DHT22;23548;51.196;6.838;2022-08-11T20:01:27;26.60;45.80
37702;DHT22;23548;51.196;6.838;2022-08-11T20:04:12;26.60;45.80
37702;DHT22;23548;51.196;6.838;2022-08-11T20:06:56;26.50;46.10
37702;DHT22;23548;51.196;6.838;2022-08-11T20:09:43;26.50;46.20
37702;DHT22;23548;51.196;6.838;2022-08-11T20:12:29;26.40;46.30
37702;DHT22;23548;51.196;6.838;2022-08-11T20:15:17;26.40;46.60
37702;DHT22;23548;51.196;6.838;2022-08-11T20:18:05;26.30;46.40